sensor_id;sensor_type;location;lat;lon;timestamp;P1;durP1;ratioP1;P2;durP2;ratioP2
38805;SDS011;25635;51.146;17.162;2022-09-12T00:01:11;6.78;;;3.27;;
38805;SDS011;25635;51.146;17.162;2022-09-12T00:03:43;7.08;;;3.52;;
38805;SDS011;25635;51.146;17.162;2022-09-12T00:06:15;7.40;;;3.85;;
38805;SDS011;25635;51.146;17.162;2022-09-12T00:08:54;6.22;;;3.87;;
38805;SDS011;25635;51.146;17.162;2022-09-12T00:11:23;7.22;;;3.80;;
38805;SDS011;25635;51.146;17.162;2022-09-12T00:13:54;9.40;;;3.80;;
38805;SDS011;25635;51.146;17.162;2022-09-12T00:16:25;6.78;;;3.52;;
38805;SDS011;25635;51.146;17.162;2022-09-12T00:18:55;6.95;;;3.27;;
38805;SDS011;25635;51.146;17.162;2022-09-12T00:21:22;8.68;;;3.87;;
38805;SDS011;25635;51.146;17.162;2022-09-12T00:23:49;6.33;;;3.62;;
38805;SDS011;25635;51.146;17.162;2022-09-12T00:26:17;8.53;;;4.20;;
38805;SDS011;25635;51.146;17.162;2022-09-12T00:28:45;8.25;;;3.50;;
38805;SDS011;25635;51.146;17.162;2022-09-12T00:31:16;8.40;;;3.60;;
38805;SDS011;25635;51.146;17.162;2022-09-12T00:33:49;7.42;;;3.35;;
38805;SDS011;25635;51.146;17.162;2022-09-12T00:36:18;6.58;;;3.67;;
38805;SDS011;25635;51.146;17.162;2022-09-12T00:38:47;6.55;;;3.40;;
38805;SDS011;25635;51.146;17.162;2022-09-12T00:41:16;7.20;;;3.77;;
38805;SDS011;25635;51.146;17.162;2022-09-12T00:43:53;8.90;;;3.87;;
38805;SDS011;25635;51.146;17.162;2022-09-12T00:54:43;7.75;;;3.40;;
38805;SDS011;25635;51.146;17.162;2022-09-12T00:59:52;6.42;;;3.35;;
38805;SDS011;25635;51.146;17.162;2022-09-12T01:02:17;7.28;;;3.25;;
38805;SDS011;25635;51.146;17.162;2022-09-12T01:04:44;6.47;;;3.37;;
38805;SDS011;25635;51.146;17.162;2022-09-12T01:07:12;6.67;;;3.27;;
38805;SDS011;25635;51.146;17.162;2022-09-12T01:09:40;8.63;;;3.83;;
38805;SDS011;25635;51.146;17.162;2022-09-12T01:12:09;6.28;;;3.20;;
38805;SDS011;25635;51.146;17.162;2022-09-12T01:14:37;8.03;;;3.72;;
38805;SDS011;25635;51.146;17.162;2022-09-12T01:17:04;6.15;;;3.30;;
38805;SDS011;25635;51.146;17.162;2022-09-12T01:29:19;7.12;;;3.92;;
38805;SDS011;25635;51.146;17.162;2022-09-12T01:32:14;8.00;;;3.50;;
38805;SDS011;25635;51.146;17.162;2022-09-12T01:37:19;6.40;;;3.42;;
38805;SDS011;25635;51.146;17.162;2022-09-12T01:40:01;6.50;;;3.90;;
38805;SDS011;25635;51.146;17.162;2022-09-12T01:45:31;8.28;;;4.12;;
38805;SDS011;25635;51.146;17.162;2022-09-12T01:48:22;8.35;;;3.90;;
38805;SDS011;25635;51.146;17.162;2022-09-12T01:51:20;6.90;;;3.58;;
38805;SDS011;25635;51.146;17.162;2022-09-12T01:53:59;7.55;;;3.52;;
38805;SDS011;25635;51.146;17.162;2022-09-12T01:56:35;5.75;;;3.45;;
38805;SDS011;25635;51.146;17.162;2022-09-12T02:02:02;11.03;;;3.90;;
38805;SDS011;25635;51.146;17.162;2022-09-12T02:04:37;8.55;;;4.10;;
38805;SDS011;25635;51.146;17.162;2022-09-12T02:07:26;6.72;;;3.70;;
38805;SDS011;25635;51.146;17.162;2022-09-12T02:09:58;8.30;;;4.10;;
38805;SDS011;25635;51.146;17.162;2022-09-12T02:12:36;5.67;;;3.05;;
38805;SDS011;25635;51.146;17.162;2022-09-12T02:15:08;5.97;;;3.15;;
38805;SDS011;25635;51.146;17.162;2022-09-12T02:17:38;7.00;;;3.80;;
38805;SDS011;25635;51.146;17.162;2022-09-12T02:20:13;6.25;;;3.08;;
38805;SDS011;25635;51.146;17.162;2022-09-12T02:22:43;9.40;;;3.67;;
38805;SDS011;25635;51.146;17.162;2022-09-12T02:25:12;11.22;;;3.72;;
38805;SDS011;25635;51.146;17.162;2022-09-12T02:30:20;6.25;;;2.98;;
38805;SDS011;25635;51.146;17.162;2022-09-12T02:38:06;9.38;;;3.85;;
38805;SDS011;25635;51.146;17.162;2022-09-12T02:40:49;7.22;;;3.40;;
38805;SDS011;25635;51.146;17.162;2022-09-12T02:43:15;8.28;;;3.50;;
38805;SDS011;25635;51.146;17.162;2022-09-12T02:45:42;6.90;;;3.62;;
38805;SDS011;25635;51.146;17.162;2022-09-12T02:50:52;5.72;;;3.10;;
38805;SDS011;25635;51.146;17.162;2022-09-12T02:53:19;6.65;;;3.58;;
38805;SDS011;25635;51.146;17.162;2022-09-12T02:55:45;6.90;;;3.52;;
38805;SDS011;25635;51.146;17.162;2022-09-12T02:58:13;7.08;;;3.47;;
38805;SDS011;25635;51.146;17.162;2022-09-12T03:00:45;7.37;;;3.70;;
38805;SDS011;25635;51.146;17.162;2022-09-12T03:14:58;8.23;;;3.55;;
38805;SDS011;25635;51.146;17.162;2022-09-12T03:23:11;6.75;;;3.27;;
38805;SDS011;25635;51.146;17.162;2022-09-12T03:28:36;6.08;;;3.17;;
38805;SDS011;25635;51.146;17.162;2022-09-12T03:31:10;7.78;;;3.05;;
38805;SDS011;25635;51.146;17.162;2022-09-12T03:33:39;6.53;;;3.15;;
38805;SDS011;25635;51.146;17.162;2022-09-12T03:36:06;6.20;;;3.33;;
38805;SDS011;25635;51.146;17.162;2022-09-12T03:38:49;6.00;;;3.02;;
38805;SDS011;25635;51.146;17.162;2022-09-12T03:41:16;6.22;;;3.55;;
38805;SDS011;25635;51.146;17.162;2022-09-12T03:43:42;6.53;;;3.17;;
38805;SDS011;25635;51.146;17.162;2022-09-12T03:46:09;6.37;;;3.02;;
38805;SDS011;25635;51.146;17.162;2022-09-12T03:48:36;6.67;;;3.50;;
38805;SDS011;25635;51.146;17.162;2022-09-12T03:51:04;8.90;;;3.80;;
38805;SDS011;25635;51.146;17.162;2022-09-12T03:53:34;10.28;;;4.05;;
38805;SDS011;25635;51.146;17.162;2022-09-12T03:56:04;7.33;;;3.20;;
38805;SDS011;25635;51.146;17.162;2022-09-12T03:58:33;7.22;;;2.98;;
38805;SDS011;25635;51.146;17.162;2022-09-12T04:01:12;6.75;;;3.02;;
38805;SDS011;25635;51.146;17.162;2022-09-12T04:03:42;7.95;;;3.00;;
38805;SDS011;25635;51.146;17.162;2022-09-12T04:06:11;6.03;;;2.95;;
38805;SDS011;25635;51.146;17.162;2022-09-12T04:08:41;9.55;;;3.25;;
38805;SDS011;25635;51.146;17.162;2022-09-12T04:11:10;5.85;;;3.27;;
38805;SDS011;25635;51.146;17.162;2022-09-12T04:13:38;7.05;;;3.50;;
38805;SDS011;25635;51.146;17.162;2022-09-12T04:16:07;7.80;;;3.50;;
38805;SDS011;25635;51.146;17.162;2022-09-12T04:18:34;6.53;;;3.10;;
38805;SDS011;25635;51.146;17.162;2022-09-12T04:21:05;8.38;;;3.20;;
38805;SDS011;25635;51.146;17.162;2022-09-12T04:23:37;8.60;;;3.40;;
38805;SDS011;25635;51.146;17.162;2022-09-12T04:26:04;6.90;;;3.00;;
38805;SDS011;25635;51.146;17.162;2022-09-12T04:28:32;5.72;;;3.52;;
38805;SDS011;25635;51.146;17.162;2022-09-12T04:31:06;5.80;;;3.40;;
38805;SDS011;25635;51.146;17.162;2022-09-12T04:33:32;6.80;;;3.40;;
38805;SDS011;25635;51.146;17.162;2022-09-12T04:36:04;6.35;;;3.08;;
38805;SDS011;25635;51.146;17.162;2022-09-12T04:38:34;6.03;;;3.27;;
38805;SDS011;25635;51.146;17.162;2022-09-12T04:41:14;5.62;;;3.05;;
38805;SDS011;25635;51.146;17.162;2022-09-12T04:43:44;9.23;;;3.40;;
38805;SDS011;25635;51.146;17.162;2022-09-12T04:46:12;5.62;;;3.25;;
38805;SDS011;25635;51.146;17.162;2022-09-12T04:48:41;7.60;;;3.77;;
38805;SDS011;25635;51.146;17.162;2022-09-12T04:51:09;10.25;;;4.22;;
38805;SDS011;25635;51.146;17.162;2022-09-12T04:53:42;6.55;;;3.65;;
38805;SDS011;25635;51.146;17.162;2022-09-12T04:56:12;6.95;;;3.52;;
38805;SDS011;25635;51.146;17.162;2022-09-12T04:58:39;5.75;;;3.05;;
38805;SDS011;25635;51.146;17.162;2022-09-12T05:01:06;8.03;;;3.80;;
38805;SDS011;25635;51.146;17.162;2022-09-12T05:03:36;6.20;;;3.25;;
38805;SDS011;25635;51.146;17.162;2022-09-12T05:06:09;7.85;;;3.62;;
38805;SDS011;25635;51.146;17.162;2022-09-12T05:08:41;7.60;;;3.52;;
38805;SDS011;25635;51.146;17.162;2022-09-12T05:11:14;6.97;;;3.27;;
38805;SDS011;25635;51.146;17.162;2022-09-12T05:13:47;7.17;;;3.10;;
38805;SDS011;25635;51.146;17.162;2022-09-12T05:16:14;6.53;;;3.25;;
38805;SDS011;25635;51.146;17.162;2022-09-12T05:18:42;5.95;;;3.02;;
38805;SDS011;25635;51.146;17.162;2022-09-12T05:21:13;7.25;;;3.35;;
38805;SDS011;25635;51.146;17.162;2022-09-12T05:23:42;6.58;;;3.25;;
38805;SDS011;25635;51.146;17.162;2022-09-12T05:26:12;7.40;;;3.50;;
38805;SDS011;25635;51.146;17.162;2022-09-12T05:28:40;7.40;;;3.42;;
38805;SDS011;25635;51.146;17.162;2022-09-12T05:31:12;6.22;;;3.10;;
38805;SDS011;25635;51.146;17.162;2022-09-12T05:33:43;7.87;;;3.60;;
38805;SDS011;25635;51.146;17.162;2022-09-12T05:36:12;6.30;;;3.35;;
38805;SDS011;25635;51.146;17.162;2022-09-12T05:38:45;7.78;;;3.22;;
38805;SDS011;25635;51.146;17.162;2022-09-12T05:41:13;8.25;;;4.10;;
38805;SDS011;25635;51.146;17.162;2022-09-12T05:43:46;6.78;;;3.75;;
38805;SDS011;25635;51.146;17.162;2022-09-12T05:46:18;7.00;;;3.80;;
38805;SDS011;25635;51.146;17.162;2022-09-12T05:48:46;6.50;;;3.35;;
38805;SDS011;25635;51.146;17.162;2022-09-12T05:51:15;6.05;;;3.42;;
38805;SDS011;25635;51.146;17.162;2022-09-12T05:53:46;7.40;;;3.72;;
38805;SDS011;25635;51.146;17.162;2022-09-12T05:56:16;8.20;;;3.60;;
38805;SDS011;25635;51.146;17.162;2022-09-12T05:58:46;5.97;;;3.47;;
38805;SDS011;25635;51.146;17.162;2022-09-12T06:01:22;7.20;;;3.85;;
38805;SDS011;25635;51.146;17.162;2022-09-12T06:03:51;6.33;;;3.90;;
38805;SDS011;25635;51.146;17.162;2022-09-12T06:06:20;8.38;;;3.20;;
38805;SDS011;25635;51.146;17.162;2022-09-12T06:08:50;7.22;;;3.95;;
38805;SDS011;25635;51.146;17.162;2022-09-12T06:11:21;7.80;;;3.37;;
38805;SDS011;25635;51.146;17.162;2022-09-12T06:13:54;6.05;;;2.83;;
38805;SDS011;25635;51.146;17.162;2022-09-12T06:16:27;5.92;;;3.20;;
38805;SDS011;25635;51.146;17.162;2022-09-12T06:18:54;6.70;;;3.42;;
38805;SDS011;25635;51.146;17.162;2022-09-12T06:21:26;6.20;;;3.55;;
38805;SDS011;25635;51.146;17.162;2022-09-12T06:23:56;6.25;;;3.52;;
38805;SDS011;25635;51.146;17.162;2022-09-12T06:26:23;7.97;;;3.13;;
38805;SDS011;25635;51.146;17.162;2022-09-12T06:28:51;5.72;;;3.30;;
38805;SDS011;25635;51.146;17.162;2022-09-12T06:31:21;5.70;;;2.95;;
38805;SDS011;25635;51.146;17.162;2022-09-12T06:33:51;5.10;;;2.90;;
38805;SDS011;25635;51.146;17.162;2022-09-12T06:36:23;5.97;;;3.02;;
38805;SDS011;25635;51.146;17.162;2022-09-12T06:38:57;8.53;;;3.02;;
38805;SDS011;25635;51.146;17.162;2022-09-12T06:41:28;9.00;;;3.50;;
38805;SDS011;25635;51.146;17.162;2022-09-12T06:43:56;8.03;;;3.45;;
38805;SDS011;25635;51.146;17.162;2022-09-12T06:46:24;6.33;;;2.92;;
38805;SDS011;25635;51.146;17.162;2022-09-12T06:48:52;7.92;;;2.80;;
38805;SDS011;25635;51.146;17.162;2022-09-12T06:51:20;6.15;;;3.00;;
38805;SDS011;25635;51.146;17.162;2022-09-12T06:53:47;7.15;;;2.85;;
38805;SDS011;25635;51.146;17.162;2022-09-12T06:56:15;5.80;;;2.98;;
38805;SDS011;25635;51.146;17.162;2022-09-12T06:58:46;6.67;;;3.17;;
38805;SDS011;25635;51.146;17.162;2022-09-12T07:01:16;6.17;;;2.87;;
38805;SDS011;25635;51.146;17.162;2022-09-12T07:03:49;7.70;;;2.77;;
38805;SDS011;25635;51.146;17.162;2022-09-12T07:06:19;9.05;;;3.15;;
38805;SDS011;25635;51.146;17.162;2022-09-12T07:08:49;6.35;;;2.30;;
38805;SDS011;25635;51.146;17.162;2022-09-12T07:11:23;8.63;;;3.40;;
38805;SDS011;25635;51.146;17.162;2022-09-12T07:13:53;5.83;;;2.67;;
38805;SDS011;25635;51.146;17.162;2022-09-12T07:16:21;4.92;;;2.15;;
38805;SDS011;25635;51.146;17.162;2022-09-12T07:18:55;6.45;;;2.47;;
38805;SDS011;25635;51.146;17.162;2022-09-12T07:21:26;6.08;;;2.25;;
38805;SDS011;25635;51.146;17.162;2022-09-12T07:23:54;6.67;;;2.00;;
38805;SDS011;25635;51.146;17.162;2022-09-12T07:26:22;4.95;;;2.40;;
38805;SDS011;25635;51.146;17.162;2022-09-12T07:28:51;5.12;;;2.17;;
38805;SDS011;25635;51.146;17.162;2022-09-12T07:31:19;6.90;;;2.22;;
38805;SDS011;25635;51.146;17.162;2022-09-12T07:33:49;6.83;;;2.08;;
38805;SDS011;25635;51.146;17.162;2022-09-12T07:36:17;7.95;;;3.80;;
38805;SDS011;25635;51.146;17.162;2022-09-12T07:38:47;18.80;;;13.50;;
38805;SDS011;25635;51.146;17.162;2022-09-12T07:41:19;10.78;;;6.75;;
38805;SDS011;25635;51.146;17.162;2022-09-12T07:43:56;7.22;;;3.00;;
38805;SDS011;25635;51.146;17.162;2022-09-12T07:46:26;8.10;;;4.08;;
38805;SDS011;25635;51.146;17.162;2022-09-12T07:48:56;8.25;;;5.80;;
38805;SDS011;25635;51.146;17.162;2022-09-12T07:51:25;11.55;;;6.85;;
38805;SDS011;25635;51.146;17.162;2022-09-12T07:53:53;11.53;;;7.45;;
38805;SDS011;25635;51.146;17.162;2022-09-12T07:56:21;6.08;;;2.80;;
38805;SDS011;25635;51.146;17.162;2022-09-12T07:58:48;5.33;;;2.05;;
38805;SDS011;25635;51.146;17.162;2022-09-12T08:01:16;7.72;;;2.25;;
38805;SDS011;25635;51.146;17.162;2022-09-12T08:03:46;6.35;;;1.87;;
38805;SDS011;25635;51.146;17.162;2022-09-12T08:06:15;4.80;;;1.87;;
38805;SDS011;25635;51.146;17.162;2022-09-12T08:08:49;5.05;;;1.70;;
38805;SDS011;25635;51.146;17.162;2022-09-12T08:11:18;5.80;;;2.12;;
38805;SDS011;25635;51.146;17.162;2022-09-12T08:13:46;5.40;;;1.95;;
38805;SDS011;25635;51.146;17.162;2022-09-12T08:16:14;6.90;;;2.40;;
38805;SDS011;25635;51.146;17.162;2022-09-12T08:18:43;5.15;;;1.75;;
38805;SDS011;25635;51.146;17.162;2022-09-12T08:21:14;7.03;;;1.87;;
38805;SDS011;25635;51.146;17.162;2022-09-12T08:23:54;6.35;;;1.62;;
38805;SDS011;25635;51.146;17.162;2022-09-12T08:26:23;6.12;;;2.12;;
38805;SDS011;25635;51.146;17.162;2022-09-12T08:28:50;5.28;;;1.80;;
38805;SDS011;25635;51.146;17.162;2022-09-12T08:31:18;5.70;;;1.87;;
38805;SDS011;25635;51.146;17.162;2022-09-12T08:33:47;6.90;;;2.27;;
38805;SDS011;25635;51.146;17.162;2022-09-12T08:36:15;7.20;;;3.90;;
38805;SDS011;25635;51.146;17.162;2022-09-12T08:38:48;6.67;;;2.90;;
38805;SDS011;25635;51.146;17.162;2022-09-12T08:47:34;4.67;;;1.70;;
38805;SDS011;25635;51.146;17.162;2022-09-12T08:58:10;6.05;;;1.98;;
38805;SDS011;25635;51.146;17.162;2022-09-12T09:00:44;4.65;;;1.77;;
38805;SDS011;25635;51.146;17.162;2022-09-12T09:08:55;6.55;;;1.65;;
38805;SDS011;25635;51.146;17.162;2022-09-12T09:17:20;7.03;;;4.28;;
38805;SDS011;25635;51.146;17.162;2022-09-12T09:22:54;4.35;;;1.75;;
38805;SDS011;25635;51.146;17.162;2022-09-12T09:28:13;5.55;;;1.67;;
38805;SDS011;25635;51.146;17.162;2022-09-12T09:30:42;5.60;;;1.80;;
38805;SDS011;25635;51.146;17.162;2022-09-12T09:33:14;7.42;;;1.75;;
38805;SDS011;25635;51.146;17.162;2022-09-12T09:35:45;5.12;;;1.72;;
38805;SDS011;25635;51.146;17.162;2022-09-12T09:41:00;4.53;;;1.87;;
38805;SDS011;25635;51.146;17.162;2022-09-12T09:43:49;4.40;;;1.72;;
38805;SDS011;25635;51.146;17.162;2022-09-12T09:46:16;4.78;;;1.60;;
38805;SDS011;25635;51.146;17.162;2022-09-12T09:48:48;4.95;;;1.80;;
38805;SDS011;25635;51.146;17.162;2022-09-12T09:51:14;5.25;;;2.20;;
38805;SDS011;25635;51.146;17.162;2022-09-12T09:53:50;4.37;;;1.50;;
38805;SDS011;25635;51.146;17.162;2022-09-12T10:01:52;4.17;;;1.70;;
38805;SDS011;25635;51.146;17.162;2022-09-12T10:04:26;4.65;;;1.70;;
38805;SDS011;25635;51.146;17.162;2022-09-12T10:06:56;4.75;;;1.50;;
38805;SDS011;25635;51.146;17.162;2022-09-12T10:09:26;4.25;;;1.47;;
38805;SDS011;25635;51.146;17.162;2022-09-12T10:11:57;5.05;;;2.60;;
38805;SDS011;25635;51.146;17.162;2022-09-12T10:14:40;11.03;;;6.72;;
38805;SDS011;25635;51.146;17.162;2022-09-12T10:19:55;9.75;;;5.50;;
38805;SDS011;25635;51.146;17.162;2022-09-12T10:22:23;12.18;;;6.33;;
38805;SDS011;25635;51.146;17.162;2022-09-12T10:24:54;7.40;;;4.08;;
38805;SDS011;25635;51.146;17.162;2022-09-12T10:27:25;9.13;;;2.95;;
38805;SDS011;25635;51.146;17.162;2022-09-12T10:30:16;6.72;;;1.75;;
38805;SDS011;25635;51.146;17.162;2022-09-12T10:32:47;5.83;;;1.82;;
38805;SDS011;25635;51.146;17.162;2022-09-12T10:35:20;4.25;;;1.47;;
38805;SDS011;25635;51.146;17.162;2022-09-12T10:37:51;7.83;;;3.62;;
38805;SDS011;25635;51.146;17.162;2022-09-12T10:40:25;4.75;;;1.70;;
38805;SDS011;25635;51.146;17.162;2022-09-12T10:42:56;6.53;;;1.83;;
38805;SDS011;25635;51.146;17.162;2022-09-12T10:45:31;4.12;;;1.60;;
38805;SDS011;25635;51.146;17.162;2022-09-12T10:48:01;3.98;;;1.40;;
38805;SDS011;25635;51.146;17.162;2022-09-12T10:50:55;9.65;;;2.77;;
38805;SDS011;25635;51.146;17.162;2022-09-12T10:56:13;5.12;;;1.60;;
38805;SDS011;25635;51.146;17.162;2022-09-12T10:59:18;4.17;;;1.70;;
38805;SDS011;25635;51.146;17.162;2022-09-12T11:16:05;5.87;;;1.70;;
38805;SDS011;25635;51.146;17.162;2022-09-12T11:21:54;5.90;;;1.80;;
38805;SDS011;25635;51.146;17.162;2022-09-12T11:24:34;4.85;;;1.27;;
38805;SDS011;25635;51.146;17.162;2022-09-12T11:30:15;5.17;;;2.05;;
38805;SDS011;25635;51.146;17.162;2022-09-12T11:35:44;4.37;;;1.40;;
38805;SDS011;25635;51.146;17.162;2022-09-12T11:41:24;4.10;;;1.45;;
38805;SDS011;25635;51.146;17.162;2022-09-12T11:44:03;3.35;;;1.40;;
38805;SDS011;25635;51.146;17.162;2022-09-12T11:46:41;5.90;;;1.40;;
38805;SDS011;25635;51.146;17.162;2022-09-12T11:51:59;4.97;;;1.57;;
38805;SDS011;25635;51.146;17.162;2022-09-12T11:57:42;5.12;;;1.47;;
38805;SDS011;25635;51.146;17.162;2022-09-12T12:00:15;3.42;;;1.15;;
38805;SDS011;25635;51.146;17.162;2022-09-12T12:06:01;4.47;;;1.35;;
38805;SDS011;25635;51.146;17.162;2022-09-12T12:08:39;6.58;;;2.00;;
38805;SDS011;25635;51.146;17.162;2022-09-12T12:11:09;7.28;;;4.30;;
38805;SDS011;25635;51.146;17.162;2022-09-12T12:13:46;6.85;;;3.42;;
38805;SDS011;25635;51.146;17.162;2022-09-12T12:16:22;4.35;;;1.90;;
38805;SDS011;25635;51.146;17.162;2022-09-12T12:18:54;3.58;;;1.37;;
38805;SDS011;25635;51.146;17.162;2022-09-12T12:34:44;4.10;;;1.47;;
38805;SDS011;25635;51.146;17.162;2022-09-12T12:39:58;4.28;;;1.72;;
38805;SDS011;25635;51.146;17.162;2022-09-12T12:47:55;4.35;;;1.40;;
38805;SDS011;25635;51.146;17.162;2022-09-12T12:50:29;4.87;;;1.17;;
38805;SDS011;25635;51.146;17.162;2022-09-12T12:53:02;4.75;;;1.17;;
38805;SDS011;25635;51.146;17.162;2022-09-12T12:55:45;4.58;;;1.07;;
38805;SDS011;25635;51.146;17.162;2022-09-12T13:03:31;3.12;;;0.93;;
38805;SDS011;25635;51.146;17.162;2022-09-12T13:06:00;3.42;;;1.22;;
38805;SDS011;25635;51.146;17.162;2022-09-12T13:08:31;3.85;;;1.00;;
38805;SDS011;25635;51.146;17.162;2022-09-12T13:11:25;4.72;;;1.00;;
38805;SDS011;25635;51.146;17.162;2022-09-12T13:16:36;5.60;;;1.50;;
38805;SDS011;25635;51.146;17.162;2022-09-12T13:19:12;6.00;;;1.20;;
38805;SDS011;25635;51.146;17.162;2022-09-12T13:21:56;3.35;;;1.07;;
38805;SDS011;25635;51.146;17.162;2022-09-12T13:24:31;5.37;;;1.32;;
38805;SDS011;25635;51.146;17.162;2022-09-12T13:26:57;3.62;;;1.40;;
38805;SDS011;25635;51.146;17.162;2022-09-12T13:29:25;4.22;;;1.20;;
38805;SDS011;25635;51.146;17.162;2022-09-12T13:31:54;5.87;;;2.70;;
38805;SDS011;25635;51.146;17.162;2022-09-12T13:34:25;5.62;;;1.87;;
38805;SDS011;25635;51.146;17.162;2022-09-12T13:37:02;3.45;;;1.40;;
38805;SDS011;25635;51.146;17.162;2022-09-12T13:39:57;5.45;;;1.47;;
38805;SDS011;25635;51.146;17.162;2022-09-12T13:42:40;3.92;;;1.40;;
38805;SDS011;25635;51.146;17.162;2022-09-12T13:47:45;3.45;;;1.10;;
38805;SDS011;25635;51.146;17.162;2022-09-12T13:50:27;4.30;;;1.50;;
38805;SDS011;25635;51.146;17.162;2022-09-12T13:53:02;3.70;;;1.25;;
38805;SDS011;25635;51.146;17.162;2022-09-12T13:55:29;5.33;;;1.37;;
38805;SDS011;25635;51.146;17.162;2022-09-12T13:58:03;5.43;;;1.47;;
38805;SDS011;25635;51.146;17.162;2022-09-12T14:00:32;3.67;;;1.20;;
38805;SDS011;25635;51.146;17.162;2022-09-12T14:03:00;5.20;;;1.40;;
38805;SDS011;25635;51.146;17.162;2022-09-12T14:08:15;8.53;;;6.05;;
38805;SDS011;25635;51.146;17.162;2022-09-12T14:10:43;16.45;;;11.38;;
38805;SDS011;25635;51.146;17.162;2022-09-12T14:13:14;5.92;;;3.25;;
38805;SDS011;25635;51.146;17.162;2022-09-12T14:15:49;6.75;;;3.20;;
38805;SDS011;25635;51.146;17.162;2022-09-12T14:18:23;3.83;;;1.50;;
38805;SDS011;25635;51.146;17.162;2022-09-12T14:20:57;5.47;;;1.40;;
38805;SDS011;25635;51.146;17.162;2022-09-12T14:23:29;4.37;;;1.40;;
38805;SDS011;25635;51.146;17.162;2022-09-12T14:26:02;4.97;;;1.70;;
38805;SDS011;25635;51.146;17.162;2022-09-12T14:28:31;5.78;;;1.25;;
38805;SDS011;25635;51.146;17.162;2022-09-12T14:31:08;4.20;;;1.50;;
38805;SDS011;25635;51.146;17.162;2022-09-12T14:33:47;4.33;;;1.57;;
38805;SDS011;25635;51.146;17.162;2022-09-12T14:36:29;4.12;;;1.65;;
38805;SDS011;25635;51.146;17.162;2022-09-12T14:39:03;7.67;;;1.52;;
38805;SDS011;25635;51.146;17.162;2022-09-12T14:41:34;5.30;;;1.67;;
38805;SDS011;25635;51.146;17.162;2022-09-12T14:44:07;4.85;;;1.70;;
38805;SDS011;25635;51.146;17.162;2022-09-12T14:46:47;5.42;;;1.67;;
38805;SDS011;25635;51.146;17.162;2022-09-12T14:52:03;5.78;;;1.70;;
38805;SDS011;25635;51.146;17.162;2022-09-12T14:57:03;3.95;;;1.40;;
38805;SDS011;25635;51.146;17.162;2022-09-12T15:02:21;4.75;;;1.65;;
38805;SDS011;25635;51.146;17.162;2022-09-12T15:07:39;6.10;;;1.72;;
38805;SDS011;25635;51.146;17.162;2022-09-12T15:12:48;4.03;;;1.55;;
38805;SDS011;25635;51.146;17.162;2022-09-12T15:15:15;3.92;;;1.50;;
38805;SDS011;25635;51.146;17.162;2022-09-12T15:17:45;4.08;;;1.72;;
38805;SDS011;25635;51.146;17.162;2022-09-12T15:20:12;4.00;;;2.00;;
38805;SDS011;25635;51.146;17.162;2022-09-12T15:22:39;4.25;;;1.80;;
38805;SDS011;25635;51.146;17.162;2022-09-12T15:25:08;4.65;;;1.92;;
38805;SDS011;25635;51.146;17.162;2022-09-12T15:27:35;5.12;;;1.77;;
38805;SDS011;25635;51.146;17.162;2022-09-12T15:30:03;4.75;;;1.82;;
38805;SDS011;25635;51.146;17.162;2022-09-12T15:32:31;5.65;;;1.98;;
38805;SDS011;25635;51.146;17.162;2022-09-12T15:34:59;3.90;;;1.80;;
38805;SDS011;25635;51.146;17.162;2022-09-12T15:37:33;5.37;;;1.97;;
38805;SDS011;25635;51.146;17.162;2022-09-12T15:40:04;4.20;;;1.80;;
38805;SDS011;25635;51.146;17.162;2022-09-12T15:42:32;6.33;;;2.10;;
38805;SDS011;25635;51.146;17.162;2022-09-12T15:44:59;5.72;;;1.80;;
38805;SDS011;25635;51.146;17.162;2022-09-12T15:47:25;7.40;;;1.80;;
38805;SDS011;25635;51.146;17.162;2022-09-12T15:49:51;4.65;;;1.70;;
38805;SDS011;25635;51.146;17.162;2022-09-12T15:52:18;4.33;;;1.87;;
38805;SDS011;25635;51.146;17.162;2022-09-12T15:54:44;5.83;;;1.70;;
38805;SDS011;25635;51.146;17.162;2022-09-12T15:57:10;4.42;;;1.85;;
38805;SDS011;25635;51.146;17.162;2022-09-12T15:59:37;4.50;;;1.82;;
38805;SDS011;25635;51.146;17.162;2022-09-12T16:02:03;5.40;;;1.70;;
38805;SDS011;25635;51.146;17.162;2022-09-12T16:04:30;6.50;;;2.60;;
38805;SDS011;25635;51.146;17.162;2022-09-12T16:06:57;7.67;;;3.50;;
38805;SDS011;25635;51.146;17.162;2022-09-12T16:09:24;8.25;;;4.08;;
38805;SDS011;25635;51.146;17.162;2022-09-12T16:11:51;10.28;;;3.40;;
38805;SDS011;25635;51.146;17.162;2022-09-12T16:14:20;5.47;;;2.72;;
38805;SDS011;25635;51.146;17.162;2022-09-12T16:16:54;7.40;;;3.30;;
38805;SDS011;25635;51.146;17.162;2022-09-12T16:19:25;6.62;;;3.52;;
38805;SDS011;25635;51.146;17.162;2022-09-12T16:21:52;6.05;;;3.22;;
38805;SDS011;25635;51.146;17.162;2022-09-12T16:24:18;8.28;;;3.17;;
38805;SDS011;25635;51.146;17.162;2022-09-12T16:26:44;5.28;;;2.95;;
38805;SDS011;25635;51.146;17.162;2022-09-12T16:29:11;6.72;;;2.30;;
38805;SDS011;25635;51.146;17.162;2022-09-12T16:31:38;5.70;;;2.17;;
38805;SDS011;25635;51.146;17.162;2022-09-12T16:34:04;7.10;;;2.77;;
38805;SDS011;25635;51.146;17.162;2022-09-12T16:36:31;5.62;;;2.90;;
38805;SDS011;25635;51.146;17.162;2022-09-12T16:38:58;6.65;;;3.45;;
38805;SDS011;25635;51.146;17.162;2022-09-12T16:41:24;8.13;;;3.52;;
38805;SDS011;25635;51.146;17.162;2022-09-12T16:43:51;9.25;;;4.80;;
38805;SDS011;25635;51.146;17.162;2022-09-12T16:46:19;10.43;;;4.67;;
38805;SDS011;25635;51.146;17.162;2022-09-12T16:48:49;9.58;;;5.53;;
38805;SDS011;25635;51.146;17.162;2022-09-12T16:51:20;9.83;;;6.00;;
38805;SDS011;25635;51.146;17.162;2022-09-12T16:53:49;8.65;;;5.67;;
38805;SDS011;25635;51.146;17.162;2022-09-12T16:56:16;10.88;;;6.55;;
38805;SDS011;25635;51.146;17.162;2022-09-12T16:58:43;13.43;;;7.05;;
38805;SDS011;25635;51.146;17.162;2022-09-12T17:01:11;13.90;;;7.22;;
38805;SDS011;25635;51.146;17.162;2022-09-12T17:03:43;11.83;;;6.25;;
38805;SDS011;25635;51.146;17.162;2022-09-12T17:06:15;12.10;;;5.50;;
38805;SDS011;25635;51.146;17.162;2022-09-12T17:08:42;9.33;;;5.20;;
38805;SDS011;25635;51.146;17.162;2022-09-12T17:11:12;9.33;;;5.40;;
38805;SDS011;25635;51.146;17.162;2022-09-12T17:13:50;9.83;;;5.70;;
38805;SDS011;25635;51.146;17.162;2022-09-12T17:16:19;11.35;;;7.12;;
38805;SDS011;25635;51.146;17.162;2022-09-12T17:18:46;11.70;;;6.97;;
38805;SDS011;25635;51.146;17.162;2022-09-12T17:21:13;11.05;;;6.67;;
38805;SDS011;25635;51.146;17.162;2022-09-12T17:23:40;13.30;;;6.97;;
38805;SDS011;25635;51.146;17.162;2022-09-12T17:26:07;10.40;;;5.97;;
38805;SDS011;25635;51.146;17.162;2022-09-12T17:28:35;12.05;;;6.05;;
38805;SDS011;25635;51.146;17.162;2022-09-12T17:31:03;14.00;;;6.50;;
38805;SDS011;25635;51.146;17.162;2022-09-12T17:33:33;9.90;;;5.90;;
38805;SDS011;25635;51.146;17.162;2022-09-12T17:36:01;11.70;;;6.55;;
38805;SDS011;25635;51.146;17.162;2022-09-12T17:38:32;11.40;;;6.40;;
38805;SDS011;25635;51.146;17.162;2022-09-12T17:41:09;9.08;;;5.85;;
38805;SDS011;25635;51.146;17.162;2022-09-12T17:43:42;11.03;;;6.37;;
38805;SDS011;25635;51.146;17.162;2022-09-12T17:46:15;10.70;;;6.20;;
38805;SDS011;25635;51.146;17.162;2022-09-12T17:48:43;10.08;;;5.97;;
38805;SDS011;25635;51.146;17.162;2022-09-12T17:51:10;12.10;;;6.05;;
38805;SDS011;25635;51.146;17.162;2022-09-12T17:53:40;10.30;;;6.50;;
38805;SDS011;25635;51.146;17.162;2022-09-12T17:56:08;10.30;;;6.60;;
38805;SDS011;25635;51.146;17.162;2022-09-12T17:58:35;10.35;;;6.53;;
38805;SDS011;25635;51.146;17.162;2022-09-12T18:01:06;11.10;;;5.70;;
38805;SDS011;25635;51.146;17.162;2022-09-12T18:03:58;11.38;;;5.85;;
38805;SDS011;25635;51.146;17.162;2022-09-12T18:06:26;9.93;;;5.08;;